Astatula, Florida
Current Conditions -  °F | °C
As of 11:53 AM on Friday 24 Oct 2014 (Local Time) from KLEE Reporting Station
Few Clouds Few Clouds  
Wind Chill: 25°   Ceiling: Unl
Heat Index: 26°   Visibility: 10mi
Dew Point: 13°   Wind: 9mph
Humidity: 48%   Direction: 40°NE
Pressure: 30.02"   Gusts: NA
Location:  28.71°N, 81.73°W
Report Text: KLEE 241553Z 04008KT 10SM FEW041 25/13 A3002 RMK AO2 SLP165 T02500133
Loading
Personal Weather Stations






























Interactive Weather Map
Tropical Storm Tracking
New forecast layout! Learn more

10-Day Weather Forecast

Advertisements
Track Severe Weather on mobile